sensor_id;sensor_type;location;lat;lon;timestamp;pressure;altitude;pressure_sealevel;temperature;humidity
829;BME280;396;52.558;13.188;2022-09-09T00:02:18;100509.00;;;15.33;100.00
829;BME280;396;52.558;13.188;2022-09-09T00:04:56;100510.00;;;15.28;100.00
829;BME280;396;52.558;13.188;2022-09-09T00:07:36;100510.53;;;15.22;100.00
829;BME280;396;52.558;13.188;2022-09-09T00:10:15;100509.59;;;15.18;100.00
829;BME280;396;52.558;13.188;2022-09-09T00:12:49;100506.28;;;15.12;100.00
829;BME280;396;52.558;13.188;2022-09-09T00:15:22;100516.72;;;15.10;100.00
829;BME280;396;52.558;13.188;2022-09-09T00:17:53;100506.75;;;15.14;100.00
829;BME280;396;52.558;13.188;2022-09-09T00:20:28;100508.06;;;15.08;100.00
829;BME280;396;52.558;13.188;2022-09-09T00:23:00;100505.19;;;15.04;100.00
829;BME280;396;52.558;13.188;2022-09-09T00:25:33;100511.94;;;15.07;100.00
829;BME280;396;52.558;13.188;2022-09-09T00:28:12;100510.34;;;15.06;100.00
829;BME280;396;52.558;13.188;2022-09-09T00:30:41;100509.66;;;15.09;100.00
829;BME280;396;52.558;13.188;2022-09-09T00:33:11;100506.94;;;15.09;100.00
829;BME280;396;52.558;13.188;2022-09-09T00:35:44;100500.22;;;15.06;100.00
829;BME280;396;52.558;13.188;2022-09-09T00:38:12;100500.53;;;15.05;100.00
829;BME280;396;52.558;13.188;2022-09-09T00:40:45;100502.69;;;14.99;100.00
829;BME280;396;52.558;13.188;2022-09-09T00:43:24;100492.56;;;15.00;100.00
829;BME280;396;52.558;13.188;2022-09-09T00:46:04;100483.94;;;14.98;100.00
829;BME280;396;52.558;13.188;2022-09-09T00:48:42;100490.19;;;14.98;100.00
829;BME280;396;52.558;13.188;2022-09-09T00:51:17;100488.78;;;14.92;100.00
829;BME280;396;52.558;13.188;2022-09-09T00:54:05;100487.97;;;14.92;100.00
829;BME280;396;52.558;13.188;2022-09-09T00:56:38;100486.56;;;14.85;100.00
829;BME280;396;52.558;13.188;2022-09-09T00:59:18;100493.09;;;14.93;100.00
829;BME280;396;52.558;13.188;2022-09-09T01:01:46;100491.97;;;14.94;100.00
829;BME280;396;52.558;13.188;2022-09-09T01:04:16;100491.84;;;14.91;100.00
829;BME280;396;52.558;13.188;2022-09-09T01:06:52;100494.09;;;14.88;100.00
829;BME280;396;52.558;13.188;2022-09-09T01:09:27;100499.06;;;14.86;100.00
829;BME280;396;52.558;13.188;2022-09-09T01:12:01;100505.66;;;14.85;100.00
829;BME280;396;52.558;13.188;2022-09-09T01:14:39;100505.22;;;14.83;100.00
829;BME280;396;52.558;13.188;2022-09-09T01:17:13;100509.53;;;14.84;100.00
829;BME280;396;52.558;13.188;2022-09-09T01:19:50;100510.13;;;14.90;100.00
829;BME280;396;52.558;13.188;2022-09-09T01:22:28;100517.06;;;14.87;100.00
829;BME280;396;52.558;13.188;2022-09-09T01:25:20;100506.81;;;14.84;100.00
829;BME280;396;52.558;13.188;2022-09-09T01:27:51;100505.47;;;14.91;100.00
829;BME280;396;52.558;13.188;2022-09-09T01:30:20;100502.75;;;14.91;100.00
829;BME280;396;52.558;13.188;2022-09-09T01:32:49;100496.50;;;14.90;100.00
829;BME280;396;52.558;13.188;2022-09-09T01:35:26;100504.31;;;14.92;100.00
829;BME280;396;52.558;13.188;2022-09-09T01:37:55;100499.34;;;14.94;100.00
829;BME280;396;52.558;13.188;2022-09-09T01:40:23;100496.28;;;14.95;100.00
829;BME280;396;52.558;13.188;2022-09-09T01:42:51;100500.16;;;14.94;100.00
829;BME280;396;52.558;13.188;2022-09-09T01:45:18;100500.94;;;14.95;100.00
829;BME280;396;52.558;13.188;2022-09-09T01:47:45;100512.00;;;14.98;100.00
829;BME280;396;52.558;13.188;2022-09-09T01:50:14;100508.13;;;14.99;100.00
829;BME280;396;52.558;13.188;2022-09-09T01:52:41;100510.72;;;14.96;100.00
829;BME280;396;52.558;13.188;2022-09-09T01:55:09;100510.06;;;14.99;100.00
829;BME280;396;52.558;13.188;2022-09-09T01:57:40;100506.06;;;14.96;100.00
829;BME280;396;52.558;13.188;2022-09-09T02:00:13;100498.22;;;14.95;100.00
829;BME280;396;52.558;13.188;2022-09-09T02:02:45;100508.34;;;14.94;100.00
829;BME280;396;52.558;13.188;2022-09-09T02:05:22;100506.88;;;14.97;100.00
829;BME280;396;52.558;13.188;2022-09-09T02:07:58;100503.47;;;15.00;100.00
829;BME280;396;52.558;13.188;2022-09-09T02:10:30;100502.22;;;14.97;100.00
829;BME280;396;52.558;13.188;2022-09-09T02:13:02;100508.34;;;14.94;100.00
829;BME280;396;52.558;13.188;2022-09-09T02:15:35;100509.78;;;14.92;100.00
829;BME280;396;52.558;13.188;2022-09-09T02:18:07;100506.75;;;14.93;100.00
829;BME280;396;52.558;13.188;2022-09-09T02:20:37;100500.50;;;14.93;100.00
829;BME280;396;52.558;13.188;2022-09-09T02:23:05;100511.84;;;14.95;100.00
829;BME280;396;52.558;13.188;2022-09-09T02:25:35;100508.69;;;14.93;100.00
829;BME280;396;52.558;13.188;2022-09-09T02:28:04;100504.31;;;14.92;100.00
829;BME280;396;52.558;13.188;2022-09-09T02:30:34;100507.88;;;14.92;100.00
829;BME280;396;52.558;13.188;2022-09-09T02:33:04;100519.38;;;14.98;100.00
829;BME280;396;52.558;13.188;2022-09-09T02:35:32;100508.00;;;14.96;100.00
829;BME280;396;52.558;13.188;2022-09-09T02:38:04;100500.00;;;14.91;100.00
829;BME280;396;52.558;13.188;2022-09-09T02:40:33;100509.97;;;14.86;100.00
829;BME280;396;52.558;13.188;2022-09-09T02:42:59;100506.59;;;14.89;100.00
829;BME280;396;52.558;13.188;2022-09-09T02:45:42;100517.16;;;14.91;100.00
829;BME280;396;52.558;13.188;2022-09-09T02:48:16;100510.91;;;14.91;100.00
829;BME280;396;52.558;13.188;2022-09-09T02:50:50;100521.25;;;14.85;100.00
829;BME280;396;52.558;13.188;2022-09-09T02:53:22;100512.72;;;14.86;100.00
829;BME280;396;52.558;13.188;2022-09-09T02:55:53;100515.31;;;14.83;100.00
829;BME280;396;52.558;13.188;2022-09-09T02:58:22;100519.16;;;14.82;100.00
829;BME280;396;52.558;13.188;2022-09-09T03:00:50;100515.63;;;14.81;100.00
829;BME280;396;52.558;13.188;2022-09-09T03:03:19;100518.09;;;14.74;100.00
829;BME280;396;52.558;13.188;2022-09-09T03:05:47;100521.63;;;14.75;100.00
829;BME280;396;52.558;13.188;2022-09-09T03:08:13;100519.25;;;14.64;100.00
829;BME280;396;52.558;13.188;2022-09-09T03:10:40;100511.44;;;14.63;100.00
829;BME280;396;52.558;13.188;2022-09-09T03:13:06;100524.13;;;14.59;100.00
829;BME280;396;52.558;13.188;2022-09-09T03:15:33;100522.97;;;14.60;100.00
829;BME280;396;52.558;13.188;2022-09-09T03:18:01;100529.56;;;14.59;100.00
829;BME280;396;52.558;13.188;2022-09-09T03:20:30;100544.19;;;14.54;100.00
829;BME280;396;52.558;13.188;2022-09-09T03:22:57;100534.06;;;14.55;100.00
829;BME280;396;52.558;13.188;2022-09-09T03:25:25;100536.19;;;14.49;100.00
829;BME280;396;52.558;13.188;2022-09-09T03:27:51;100539.22;;;14.48;100.00
829;BME280;396;52.558;13.188;2022-09-09T03:30:19;100545.50;;;14.48;100.00
829;BME280;396;52.558;13.188;2022-09-09T03:32:46;100536.81;;;14.46;100.00
829;BME280;396;52.558;13.188;2022-09-09T03:35:13;100532.50;;;14.45;100.00
829;BME280;396;52.558;13.188;2022-09-09T03:37:41;100537.66;;;14.38;100.00
829;BME280;396;52.558;13.188;2022-09-09T03:40:09;100538.00;;;14.36;100.00
829;BME280;396;52.558;13.188;2022-09-09T03:42:35;100541.25;;;14.30;100.00
829;BME280;396;52.558;13.188;2022-09-09T03:45:02;100543.47;;;14.28;100.00
829;BME280;396;52.558;13.188;2022-09-09T03:47:29;100551.31;;;14.29;100.00
829;BME280;396;52.558;13.188;2022-09-09T03:49:55;100554.22;;;14.24;100.00
829;BME280;396;52.558;13.188;2022-09-09T03:52:21;100540.94;;;14.23;100.00
829;BME280;396;52.558;13.188;2022-09-09T03:54:51;100534.84;;;14.26;100.00
829;BME280;396;52.558;13.188;2022-09-09T03:57:18;100535.63;;;14.26;100.00
829;BME280;396;52.558;13.188;2022-09-09T03:59:44;100544.91;;;14.25;100.00
829;BME280;396;52.558;13.188;2022-09-09T04:02:11;100548.91;;;14.28;100.00
829;BME280;396;52.558;13.188;2022-09-09T04:04:37;100550.50;;;14.29;100.00
829;BME280;396;52.558;13.188;2022-09-09T04:07:04;100543.63;;;14.31;100.00
829;BME280;396;52.558;13.188;2022-09-09T04:09:32;100544.75;;;14.30;100.00
829;BME280;396;52.558;13.188;2022-09-09T04:11:59;100537.38;;;14.31;100.00
829;BME280;396;52.558;13.188;2022-09-09T04:14:26;100535.44;;;14.31;100.00
829;BME280;396;52.558;13.188;2022-09-09T04:16:53;100539.44;;;14.34;100.00
829;BME280;396;52.558;13.188;2022-09-09T04:19:22;100538.63;;;14.33;100.00
829;BME280;396;52.558;13.188;2022-09-09T04:21:49;100542.16;;;14.34;100.00
829;BME280;396;52.558;13.188;2022-09-09T04:24:17;100538.19;;;14.31;100.00
829;BME280;396;52.558;13.188;2022-09-09T04:26:43;100542.84;;;14.31;100.00
829;BME280;396;52.558;13.188;2022-09-09T04:29:12;100535.31;;;14.28;100.00
829;BME280;396;52.558;13.188;2022-09-09T04:31:38;100540.28;;;14.26;100.00
829;BME280;396;52.558;13.188;2022-09-09T04:34:07;100550.50;;;14.29;100.00
829;BME280;396;52.558;13.188;2022-09-09T04:36:33;100549.25;;;14.26;100.00
829;BME280;396;52.558;13.188;2022-09-09T04:39:00;100550.38;;;14.25;100.00
829;BME280;396;52.558;13.188;2022-09-09T04:41:27;100567.22;;;14.19;100.00
829;BME280;396;52.558;13.188;2022-09-09T04:43:53;100549.94;;;14.14;100.00
829;BME280;396;52.558;13.188;2022-09-09T04:46:22;100561.97;;;14.13;100.00
829;BME280;396;52.558;13.188;2022-09-09T04:48:49;100553.63;;;14.10;100.00
829;BME280;396;52.558;13.188;2022-09-09T04:51:16;100565.81;;;14.12;100.00
829;BME280;396;52.558;13.188;2022-09-09T04:53:43;100565.16;;;14.07;100.00
829;BME280;396;52.558;13.188;2022-09-09T04:56:10;100561.97;;;14.05;100.00
829;BME280;396;52.558;13.188;2022-09-09T04:58:38;100570.94;;;14.14;100.00
829;BME280;396;52.558;13.188;2022-09-09T05:01:07;100571.09;;;14.09;100.00
829;BME280;396;52.558;13.188;2022-09-09T05:03:35;100573.16;;;14.12;100.00
829;BME280;396;52.558;13.188;2022-09-09T05:06:04;100580.88;;;14.10;100.00
829;BME280;396;52.558;13.188;2022-09-09T05:08:31;100577.97;;;14.15;100.00
829;BME280;396;52.558;13.188;2022-09-09T05:10:58;100573.81;;;14.18;100.00
829;BME280;396;52.558;13.188;2022-09-09T05:13:25;100571.69;;;14.23;100.00
829;BME280;396;52.558;13.188;2022-09-09T05:15:52;100577.13;;;14.32;100.00
829;BME280;396;52.558;13.188;2022-09-09T05:18:19;100574.84;;;14.34;100.00
829;BME280;396;52.558;13.188;2022-09-09T05:20:46;100572.78;;;14.39;100.00
829;BME280;396;52.558;13.188;2022-09-09T05:23:13;100570.84;;;14.49;100.00
829;BME280;396;52.558;13.188;2022-09-09T05:25:40;100571.78;;;14.53;100.00
829;BME280;396;52.558;13.188;2022-09-09T05:28:06;100564.22;;;14.58;100.00
829;BME280;396;52.558;13.188;2022-09-09T05:30:33;100569.47;;;14.63;100.00
829;BME280;396;52.558;13.188;2022-09-09T05:33:00;100567.84;;;14.71;100.00
829;BME280;396;52.558;13.188;2022-09-09T05:35:26;100566.50;;;14.77;100.00
829;BME280;396;52.558;13.188;2022-09-09T05:37:59;100566.66;;;14.81;100.00
829;BME280;396;52.558;13.188;2022-09-09T05:40:25;100567.75;;;14.88;100.00
829;BME280;396;52.558;13.188;2022-09-09T05:42:51;100563.22;;;14.93;100.00
829;BME280;396;52.558;13.188;2022-09-09T05:45:18;100565.09;;;15.01;100.00
829;BME280;396;52.558;13.188;2022-09-09T05:47:51;100571.47;;;15.05;100.00
829;BME280;396;52.558;13.188;2022-09-09T05:50:18;100565.00;;;15.09;100.00
829;BME280;396;52.558;13.188;2022-09-09T05:52:44;100576.56;;;15.15;100.00
829;BME280;396;52.558;13.188;2022-09-09T05:55:12;100583.25;;;15.18;100.00
829;BME280;396;52.558;13.188;2022-09-09T05:57:38;100584.19;;;15.22;100.00
829;BME280;396;52.558;13.188;2022-09-09T06:00:06;100576.81;;;15.22;100.00
829;BME280;396;52.558;13.188;2022-09-09T06:02:33;100577.75;;;15.26;100.00
829;BME280;396;52.558;13.188;2022-09-09T06:05:02;100581.75;;;15.29;100.00
829;BME280;396;52.558;13.188;2022-09-09T06:07:28;100583.81;;;15.32;100.00
829;BME280;396;52.558;13.188;2022-09-09T06:09:55;100585.88;;;15.35;100.00
829;BME280;396;52.558;13.188;2022-09-09T06:12:23;100593.06;;;15.39;100.00
829;BME280;396;52.558;13.188;2022-09-09T06:14:49;100592.53;;;15.46;100.00
829;BME280;396;52.558;13.188;2022-09-09T06:17:17;100599.72;;;15.51;100.00
829;BME280;396;52.558;13.188;2022-09-09T06:19:43;100603.03;;;15.56;100.00
829;BME280;396;52.558;13.188;2022-09-09T06:22:09;100602.66;;;15.67;100.00
829;BME280;396;52.558;13.188;2022-09-09T06:24:37;100600.53;;;15.72;100.00
829;BME280;396;52.558;13.188;2022-09-09T06:27:04;100606.25;;;15.79;100.00
829;BME280;396;52.558;13.188;2022-09-09T06:29:33;100609.59;;;15.85;100.00
829;BME280;396;52.558;13.188;2022-09-09T06:32:00;100608.09;;;15.87;100.00
829;BME280;396;52.558;13.188;2022-09-09T06:34:26;100606.28;;;15.92;100.00
829;BME280;396;52.558;13.188;2022-09-09T06:36:53;100611.53;;;15.97;100.00
829;BME280;396;52.558;13.188;2022-09-09T06:39:22;100618.72;;;16.01;100.00
829;BME280;396;52.558;13.188;2022-09-09T06:41:49;100611.81;;;16.04;100.00
829;BME280;396;52.558;13.188;2022-09-09T06:44:18;100620.94;;;16.08;100.00
829;BME280;396;52.558;13.188;2022-09-09T06:46:46;100612.03;;;16.11;100.00
829;BME280;396;52.558;13.188;2022-09-09T06:49:13;100625.59;;;16.07;100.00
829;BME280;396;52.558;13.188;2022-09-09T06:51:40;100627.50;;;16.07;100.00
829;BME280;396;52.558;13.188;2022-09-09T06:54:07;100623.78;;;16.11;100.00
829;BME280;396;52.558;13.188;2022-09-09T06:56:36;100620.72;;;16.13;100.00
829;BME280;396;52.558;13.188;2022-09-09T06:59:04;100611.72;;;16.12;100.00
829;BME280;396;52.558;13.188;2022-09-09T07:01:35;100610.69;;;16.17;100.00
829;BME280;396;52.558;13.188;2022-09-09T07:04:04;100614.34;;;16.21;100.00
829;BME280;396;52.558;13.188;2022-09-09T07:06:34;100609.34;;;16.23;100.00
829;BME280;396;52.558;13.188;2022-09-09T07:09:02;100608.00;;;16.29;100.00
829;BME280;396;52.558;13.188;2022-09-09T07:11:31;100618.50;;;16.39;100.00
829;BME280;396;52.558;13.188;2022-09-09T07:13:59;100612.53;;;16.37;100.00
829;BME280;396;52.558;13.188;2022-09-09T07:16:27;100612.78;;;16.45;100.00
829;BME280;396;52.558;13.188;2022-09-09T07:18:54;100609.38;;;16.48;100.00
829;BME280;396;52.558;13.188;2022-09-09T07:21:25;100613.50;;;16.54;100.00
829;BME280;396;52.558;13.188;2022-09-09T07:23:53;100615.31;;;16.62;100.00
829;BME280;396;52.558;13.188;2022-09-09T07:26:22;100618.75;;;16.71;100.00
829;BME280;396;52.558;13.188;2022-09-09T07:28:49;100620.59;;;16.79;100.00
829;BME280;396;52.558;13.188;2022-09-09T07:31:16;100616.97;;;16.87;100.00
829;BME280;396;52.558;13.188;2022-09-09T07:33:44;100616.38;;;16.94;100.00
829;BME280;396;52.558;13.188;2022-09-09T07:36:13;100618.88;;;16.99;100.00
829;BME280;396;52.558;13.188;2022-09-09T07:38:43;100626.63;;;17.09;100.00
829;BME280;396;52.558;13.188;2022-09-09T07:41:12;100629.69;;;17.20;100.00
829;BME280;396;52.558;13.188;2022-09-09T07:43:39;100631.50;;;17.28;100.00
829;BME280;396;52.558;13.188;2022-09-09T07:46:06;100628.16;;;17.35;100.00
829;BME280;396;52.558;13.188;2022-09-09T07:48:33;100644.16;;;17.45;100.00
829;BME280;396;52.558;13.188;2022-09-09T07:51:06;100642.75;;;17.51;100.00
829;BME280;396;52.558;13.188;2022-09-09T07:53:33;100638.63;;;17.57;100.00
829;BME280;396;52.558;13.188;2022-09-09T07:56:07;100635.72;;;17.66;100.00
829;BME280;396;52.558;13.188;2022-09-09T07:58:35;100634.03;;;17.74;100.00
829;BME280;396;52.558;13.188;2022-09-09T08:01:06;100644.84;;;17.82;100.00
829;BME280;396;52.558;13.188;2022-09-09T08:03:33;100643.47;;;17.88;100.00
829;BME280;396;52.558;13.188;2022-09-09T08:06:00;100650.97;;;17.92;100.00
829;BME280;396;52.558;13.188;2022-09-09T08:08:28;100644.81;;;17.95;100.00
829;BME280;396;52.558;13.188;2022-09-09T08:11:01;100644.44;;;17.96;100.00
829;BME280;396;52.558;13.188;2022-09-09T08:13:30;100641.56;;;18.05;100.00
829;BME280;396;52.558;13.188;2022-09-09T08:16:04;100651.94;;;18.11;100.00
829;BME280;396;52.558;13.188;2022-09-09T08:18:30;100653.34;;;18.21;100.00
829;BME280;396;52.558;13.188;2022-09-09T08:20:57;100651.78;;;18.36;100.00
829;BME280;396;52.558;13.188;2022-09-09T08:23:23;100652.41;;;18.45;100.00
829;BME280;396;52.558;13.188;2022-09-09T08:25:51;100651.91;;;18.55;100.00
829;BME280;396;52.558;13.188;2022-09-09T08:28:17;100656.06;;;18.65;99.73
829;BME280;396;52.558;13.188;2022-09-09T08:30:45;100655.13;;;18.73;96.76
829;BME280;396;52.558;13.188;2022-09-09T08:33:13;100656.44;;;18.79;97.50
829;BME280;396;52.558;13.188;2022-09-09T08:35:39;100654.31;;;18.88;95.12
829;BME280;396;52.558;13.188;2022-09-09T08:38:07;100643.84;;;18.94;95.56
829;BME280;396;52.558;13.188;2022-09-09T08:40:39;100653.06;;;19.02;95.15
829;BME280;396;52.558;13.188;2022-09-09T08:43:09;100652.88;;;19.10;94.65
829;BME280;396;52.558;13.188;2022-09-09T08:45:43;100656.06;;;19.12;91.73
829;BME280;396;52.558;13.188;2022-09-09T08:48:27;100651.38;;;19.13;90.62
829;BME280;396;52.558;13.188;2022-09-09T08:51:00;100663.22;;;19.17;93.13
829;BME280;396;52.558;13.188;2022-09-09T08:53:28;100665.69;;;19.22;94.99
829;BME280;396;52.558;13.188;2022-09-09T08:55:58;100664.91;;;19.22;95.56
829;BME280;396;52.558;13.188;2022-09-09T08:58:28;100658.34;;;19.26;94.58
829;BME280;396;52.558;13.188;2022-09-09T09:01:02;100653.28;;;19.28;94.95
829;BME280;396;52.558;13.188;2022-09-09T09:03:43;100668.25;;;19.31;93.80
829;BME280;396;52.558;13.188;2022-09-09T09:06:22;100667.19;;;19.35;96.02
829;BME280;396;52.558;13.188;2022-09-09T09:09:00;100662.09;;;19.37;95.23
829;BME280;396;52.558;13.188;2022-09-09T09:11:34;100670.84;;;19.43;94.03
829;BME280;396;52.558;13.188;2022-09-09T09:14:03;100673.25;;;19.45;95.47
829;BME280;396;52.558;13.188;2022-09-09T09:16:38;100672.59;;;19.51;93.30
829;BME280;396;52.558;13.188;2022-09-09T09:19:12;100677.47;;;19.58;91.62
829;BME280;396;52.558;13.188;2022-09-09T09:21:42;100667.28;;;19.58;89.02
829;BME280;396;52.558;13.188;2022-09-09T09:24:16;100678.63;;;19.57;90.74
829;BME280;396;52.558;13.188;2022-09-09T09:26:44;100668.97;;;19.63;91.78
829;BME280;396;52.558;13.188;2022-09-09T09:29:12;100675.94;;;19.76;91.48
829;BME280;396;52.558;13.188;2022-09-09T09:31:42;100672.59;;;19.86;90.35
829;BME280;396;52.558;13.188;2022-09-09T09:34:12;100672.03;;;19.97;90.39
829;BME280;396;52.558;13.188;2022-09-09T09:36:41;100673.31;;;20.03;89.90
829;BME280;396;52.558;13.188;2022-09-09T09:39:10;100679.47;;;20.15;89.06
829;BME280;396;52.558;13.188;2022-09-09T09:41:38;100678.72;;;20.19;87.20
829;BME280;396;52.558;13.188;2022-09-09T09:44:06;100677.22;;;20.21;87.52
829;BME280;396;52.558;13.188;2022-09-09T09:46:32;100674.16;;;20.26;85.91
829;BME280;396;52.558;13.188;2022-09-09T09:49:00;100671.25;;;20.38;89.25
829;BME280;396;52.558;13.188;2022-09-09T09:51:29;100672.63;;;20.48;88.35
829;BME280;396;52.558;13.188;2022-09-09T09:54:09;100677.50;;;20.58;86.76
829;BME280;396;52.558;13.188;2022-09-09T09:56:40;100678.44;;;20.66;86.85
829;BME280;396;52.558;13.188;2022-09-09T09:59:19;100664.81;;;20.73;87.49
829;BME280;396;52.558;13.188;2022-09-09T10:01:46;100671.66;;;20.83;85.20
829;BME280;396;52.558;13.188;2022-09-09T10:04:15;100672.03;;;20.81;85.64
829;BME280;396;52.558;13.188;2022-09-09T10:06:45;100667.47;;;20.92;84.21
829;BME280;396;52.558;13.188;2022-09-09T10:09:21;100677.03;;;20.99;86.95
829;BME280;396;52.558;13.188;2022-09-09T10:11:54;100668.31;;;20.97;88.37
829;BME280;396;52.558;13.188;2022-09-09T10:14:27;100671.47;;;20.95;85.53
829;BME280;396;52.558;13.188;2022-09-09T10:17:12;100675.06;;;20.99;83.92
829;BME280;396;52.558;13.188;2022-09-09T10:19:54;100668.44;;;21.04;84.82
829;BME280;396;52.558;13.188;2022-09-09T10:22:28;100672.47;;;21.10;83.34
829;BME280;396;52.558;13.188;2022-09-09T10:25:25;100665.44;;;21.12;82.70
829;BME280;396;52.558;13.188;2022-09-09T10:28:11;100670.16;;;21.12;85.63
829;BME280;396;52.558;13.188;2022-09-09T10:30:52;100679.09;;;21.05;83.72
829;BME280;396;52.558;13.188;2022-09-09T10:33:28;100668.59;;;21.14;84.27
829;BME280;396;52.558;13.188;2022-09-09T10:38:30;100666.81;;;21.52;85.05
829;BME280;396;52.558;13.188;2022-09-09T10:41:13;100663.81;;;21.64;84.96
829;BME280;396;52.558;13.188;2022-09-09T10:44:06;100669.88;;;21.77;79.75
829;BME280;396;52.558;13.188;2022-09-09T10:46:48;100678.47;;;21.72;80.51
829;BME280;396;52.558;13.188;2022-09-09T10:49:26;100672.72;;;21.84;80.00
829;BME280;396;52.558;13.188;2022-09-09T10:52:01;100672.94;;;22.02;81.81
829;BME280;396;52.558;13.188;2022-09-09T10:54:41;100675.13;;;22.20;81.11
829;BME280;396;52.558;13.188;2022-09-09T10:57:17;100683.16;;;22.35;81.11
829;BME280;396;52.558;13.188;2022-09-09T10:59:47;100677.47;;;22.55;76.98
829;BME280;396;52.558;13.188;2022-09-09T11:02:18;100671.28;;;22.69;72.01
829;BME280;396;52.558;13.188;2022-09-09T11:04:53;100674.25;;;22.90;75.86
829;BME280;396;52.558;13.188;2022-09-09T11:07:27;100682.72;;;23.19;74.33
829;BME280;396;52.558;13.188;2022-09-09T11:10:01;100680.03;;;23.26;72.83
829;BME280;396;52.558;13.188;2022-09-09T11:12:29;100679.75;;;23.45;74.38
829;BME280;396;52.558;13.188;2022-09-09T11:14:59;100681.88;;;23.70;74.49
829;BME280;396;52.558;13.188;2022-09-09T11:17:34;100680.91;;;24.31;67.62
829;BME280;396;52.558;13.188;2022-09-09T11:20:05;100681.34;;;25.37;66.91
829;BME280;396;52.558;13.188;2022-09-09T11:22:34;100684.88;;;26.47;62.81
829;BME280;396;52.558;13.188;2022-09-09T11:25:10;100681.09;;;27.57;60.63
829;BME280;396;52.558;13.188;2022-09-09T11:27:48;100692.03;;;28.63;53.68
829;BME280;396;52.558;13.188;2022-09-09T11:30:19;100695.91;;;28.97;50.96
829;BME280;396;52.558;13.188;2022-09-09T11:35:56;100693.47;;;29.85;50.42
829;BME280;396;52.558;13.188;2022-09-09T11:38:28;100685.84;;;30.42;47.93
829;BME280;396;52.558;13.188;2022-09-09T11:41:01;100685.97;;;30.87;46.49
829;BME280;396;52.558;13.188;2022-09-09T11:43:31;100694.06;;;29.33;45.29
829;BME280;396;52.558;13.188;2022-09-09T11:46:01;100686.66;;;28.22;51.71
829;BME280;396;52.558;13.188;2022-09-09T11:48:32;100676.44;;;27.47;54.86
829;BME280;396;52.558;13.188;2022-09-09T11:51:02;100668.63;;;26.94;56.42
829;BME280;396;52.558;13.188;2022-09-09T11:53:31;100664.03;;;26.13;58.29
829;BME280;396;52.558;13.188;2022-09-09T11:56:11;100662.66;;;26.43;56.30
829;BME280;396;52.558;13.188;2022-09-09T11:58:42;100664.09;;;27.14;56.04
829;BME280;396;52.558;13.188;2022-09-09T12:01:27;100657.59;;;28.23;51.78
829;BME280;396;52.558;13.188;2022-09-09T12:04:05;100669.78;;;29.10;49.28
829;BME280;396;52.558;13.188;2022-09-09T12:06:42;100665.66;;;28.45;49.46
829;BME280;396;52.558;13.188;2022-09-09T12:09:18;100661.16;;;27.28;51.57
829;BME280;396;52.558;13.188;2022-09-09T12:11:47;100652.25;;;27.03;55.52
829;BME280;396;52.558;13.188;2022-09-09T12:14:21;100649.63;;;27.64;51.46
829;BME280;396;52.558;13.188;2022-09-09T12:16:48;100650.56;;;28.69;48.73
829;BME280;396;52.558;13.188;2022-09-09T12:19:18;100650.34;;;29.47;45.29
829;BME280;396;52.558;13.188;2022-09-09T12:21:51;100653.00;;;29.74;46.21
829;BME280;396;52.558;13.188;2022-09-09T12:24:25;100646.13;;;29.78;46.69
829;BME280;396;52.558;13.188;2022-09-09T12:26:58;100652.88;;;30.17;46.55
829;BME280;396;52.558;13.188;2022-09-09T12:29:37;100647.06;;;29.32;44.68
829;BME280;396;52.558;13.188;2022-09-09T12:32:10;100638.19;;;29.37;46.92
829;BME280;396;52.558;13.188;2022-09-09T12:34:40;100635.69;;;30.67;46.77
829;BME280;396;52.558;13.188;2022-09-09T12:37:15;100637.66;;;32.00;43.49
829;BME280;396;52.558;13.188;2022-09-09T12:39:45;100631.16;;;32.28;40.45
829;BME280;396;52.558;13.188;2022-09-09T12:42:19;100641.13;;;31.20;41.14
829;BME280;396;52.558;13.188;2022-09-09T12:44:54;100624.69;;;30.77;42.87
829;BME280;396;52.558;13.188;2022-09-09T12:47:23;100631.00;;;31.10;41.07
829;BME280;396;52.558;13.188;2022-09-09T12:49:52;100637.22;;;31.88;40.47
829;BME280;396;52.558;13.188;2022-09-09T12:52:25;100633.88;;;31.64;42.11
829;BME280;396;52.558;13.188;2022-09-09T12:54:55;100633.16;;;30.40;43.23
829;BME280;396;52.558;13.188;2022-09-09T12:57:24;100638.06;;;29.01;44.19
829;BME280;396;52.558;13.188;2022-09-09T12:59:51;100642.44;;;27.97;47.98
829;BME280;396;52.558;13.188;2022-09-09T13:02:20;100637.34;;;27.27;49.17
829;BME280;396;52.558;13.188;2022-09-09T13:04:48;100627.97;;;26.65;49.39
829;BME280;396;52.558;13.188;2022-09-09T13:07:16;100627.50;;;26.15;50.22
829;BME280;396;52.558;13.188;2022-09-09T13:09:43;100635.66;;;25.77;52.61
829;BME280;396;52.558;13.188;2022-09-09T13:12:13;100628.25;;;25.38;57.49
829;BME280;396;52.558;13.188;2022-09-09T13:14:43;100627.94;;;25.08;58.51
829;BME280;396;52.558;13.188;2022-09-09T13:17:18;100633.88;;;24.74;58.46
829;BME280;396;52.558;13.188;2022-09-09T13:19:46;100631.91;;;24.50;57.38
829;BME280;396;52.558;13.188;2022-09-09T13:22:14;100636.59;;;24.28;57.56
829;BME280;396;52.558;13.188;2022-09-09T13:24:43;100629.03;;;24.07;58.12
829;BME280;396;52.558;13.188;2022-09-09T13:27:29;100618.31;;;23.87;59.15
829;BME280;396;52.558;13.188;2022-09-09T13:29:57;100618.63;;;23.68;59.67
829;BME280;396;52.558;13.188;2022-09-09T13:32:25;100606.72;;;23.53;60.83
829;BME280;396;52.558;13.188;2022-09-09T13:34:53;100612.19;;;23.39;64.70
829;BME280;396;52.558;13.188;2022-09-09T13:37:23;100602.22;;;23.24;62.88
829;BME280;396;52.558;13.188;2022-09-09T13:39:53;100603.34;;;23.12;63.75